sensor_id;sensor_type;location;lat;lon;timestamp;P1;durP1;ratioP1;P2;durP2;ratioP2
8716;SDS011;4395;48.554;8.820;2023-01-15T00:01:19;1.42;;;0.55;;
8716;SDS011;4395;48.554;8.820;2023-01-15T00:03:24;1.85;;;0.75;;
8716;SDS011;4395;48.554;8.820;2023-01-15T00:05:27;1.08;;;0.50;;
8716;SDS011;4395;48.554;8.820;2023-01-15T00:07:29;0.50;;;0.50;;
8716;SDS011;4395;48.554;8.820;2023-01-15T00:09:32;1.10;;;0.80;;
8716;SDS011;4395;48.554;8.820;2023-01-15T00:11:35;1.23;;;0.95;;
8716;SDS011;4395;48.554;8.820;2023-01-15T00:13:38;1.08;;;0.88;;
8716;SDS011;4395;48.554;8.820;2023-01-15T00:15:41;1.75;;;0.55;;
8716;SDS011;4395;48.554;8.820;2023-01-15T00:17:46;1.08;;;0.60;;
8716;SDS011;4395;48.554;8.820;2023-01-15T00:19:48;0.68;;;0.68;;
8716;SDS011;4395;48.554;8.820;2023-01-15T00:21:51;0.52;;;0.52;;
8716;SDS011;4395;48.554;8.820;2023-01-15T00:23:54;0.73;;;0.47;;
8716;SDS011;4395;48.554;8.820;2023-01-15T00:26:25;1.35;;;0.77;;
8716;SDS011;4395;48.554;8.820;2023-01-15T00:28:47;0.88;;;0.70;;
8716;SDS011;4395;48.554;8.820;2023-01-15T00:30:50;0.63;;;0.52;;
8716;SDS011;4395;48.554;8.820;2023-01-15T00:32:55;0.90;;;0.80;;
8716;SDS011;4395;48.554;8.820;2023-01-15T00:34:59;1.02;;;0.77;;
8716;SDS011;4395;48.554;8.820;2023-01-15T00:37:02;0.77;;;0.75;;
8716;SDS011;4395;48.554;8.820;2023-01-15T00:39:06;1.65;;;0.80;;
8716;SDS011;4395;48.554;8.820;2023-01-15T00:41:09;0.98;;;0.73;;
8716;SDS011;4395;48.554;8.820;2023-01-15T00:43:12;2.03;;;0.80;;
8716;SDS011;4395;48.554;8.820;2023-01-15T00:45:14;0.63;;;0.60;;
8716;SDS011;4395;48.554;8.820;2023-01-15T00:47:18;1.08;;;0.60;;
8716;SDS011;4395;48.554;8.820;2023-01-15T00:49:23;0.32;;;0.32;;
8716;SDS011;4395;48.554;8.820;2023-01-15T00:51:25;1.75;;;0.30;;
8716;SDS011;4395;48.554;8.820;2023-01-15T00:53:30;0.60;;;0.60;;
8716;SDS011;4395;48.554;8.820;2023-01-15T00:55:33;0.47;;;0.30;;
8716;SDS011;4395;48.554;8.820;2023-01-15T00:57:37;0.60;;;0.30;;
8716;SDS011;4395;48.554;8.820;2023-01-15T00:59:39;0.68;;;0.30;;
8716;SDS011;4395;48.554;8.820;2023-01-15T01:01:42;0.30;;;0.30;;
8716;SDS011;4395;48.554;8.820;2023-01-15T01:03:46;0.50;;;0.50;;
8716;SDS011;4395;48.554;8.820;2023-01-15T01:05:58;0.70;;;0.22;;
8716;SDS011;4395;48.554;8.820;2023-01-15T01:08:02;0.40;;;0.40;;
8716;SDS011;4395;48.554;8.820;2023-01-15T01:10:05;1.27;;;0.80;;
8716;SDS011;4395;48.554;8.820;2023-01-15T01:12:09;0.30;;;0.20;;
8716;SDS011;4395;48.554;8.820;2023-01-15T01:14:12;1.05;;;0.93;;
8716;SDS011;4395;48.554;8.820;2023-01-15T01:16:22;0.50;;;0.32;;
8716;SDS011;4395;48.554;8.820;2023-01-15T01:18:26;1.02;;;0.88;;
8716;SDS011;4395;48.554;8.820;2023-01-15T01:20:29;0.32;;;0.20;;
8716;SDS011;4395;48.554;8.820;2023-01-15T01:22:33;0.68;;;0.57;;
8716;SDS011;4395;48.554;8.820;2023-01-15T01:24:37;0.28;;;0.20;;
8716;SDS011;4395;48.554;8.820;2023-01-15T01:26:40;0.30;;;0.30;;
8716;SDS011;4395;48.554;8.820;2023-01-15T01:28:47;0.40;;;0.40;;
8716;SDS011;4395;48.554;8.820;2023-01-15T01:30:50;0.40;;;0.40;;
8716;SDS011;4395;48.554;8.820;2023-01-15T01:32:53;0.20;;;0.20;;
8716;SDS011;4395;48.554;8.820;2023-01-15T01:34:56;0.40;;;0.10;;
8716;SDS011;4395;48.554;8.820;2023-01-15T01:36:59;1.45;;;0.35;;
8716;SDS011;4395;48.554;8.820;2023-01-15T01:39:04;1.10;;;0.30;;
8716;SDS011;4395;48.554;8.820;2023-01-15T01:41:09;1.33;;;0.35;;
8716;SDS011;4395;48.554;8.820;2023-01-15T01:43:15;0.52;;;0.43;;
8716;SDS011;4395;48.554;8.820;2023-01-15T01:45:21;0.25;;;0.20;;
8716;SDS011;4395;48.554;8.820;2023-01-15T01:47:27;0.77;;;0.47;;
8716;SDS011;4395;48.554;8.820;2023-01-15T01:49:32;0.63;;;0.20;;
8716;SDS011;4395;48.554;8.820;2023-01-15T01:51:38;0.35;;;0.30;;
8716;SDS011;4395;48.554;8.820;2023-01-15T01:53:45;0.20;;;0.20;;
8716;SDS011;4395;48.554;8.820;2023-01-15T01:55:50;0.38;;;0.35;;
8716;SDS011;4395;48.554;8.820;2023-01-15T01:57:54;0.25;;;0.20;;
8716;SDS011;4395;48.554;8.820;2023-01-15T02:00:00;0.40;;;0.35;;
8716;SDS011;4395;48.554;8.820;2023-01-15T02:02:13;0.20;;;0.20;;
8716;SDS011;4395;48.554;8.820;2023-01-15T02:04:19;0.10;;;0.10;;
8716;SDS011;4395;48.554;8.820;2023-01-15T02:06:24;0.25;;;0.25;;
8716;SDS011;4395;48.554;8.820;2023-01-15T02:08:28;0.10;;;0.10;;
8716;SDS011;4395;48.554;8.820;2023-01-15T02:10:32;1.17;;;0.45;;
8716;SDS011;4395;48.554;8.820;2023-01-15T02:12:37;0.20;;;0.20;;
8716;SDS011;4395;48.554;8.820;2023-01-15T02:14:46;0.20;;;0.20;;
8716;SDS011;4395;48.554;8.820;2023-01-15T02:16:57;0.20;;;0.20;;
8716;SDS011;4395;48.554;8.820;2023-01-15T02:19:08;0.52;;;0.32;;
8716;SDS011;4395;48.554;8.820;2023-01-15T02:21:22;0.73;;;0.70;;
8716;SDS011;4395;48.554;8.820;2023-01-15T02:23:46;0.52;;;0.40;;
8716;SDS011;4395;48.554;8.820;2023-01-15T02:26:01;0.20;;;0.20;;
8716;SDS011;4395;48.554;8.820;2023-01-15T02:28:37;0.30;;;0.30;;
8716;SDS011;4395;48.554;8.820;2023-01-15T02:30:42;0.13;;;0.10;;
8716;SDS011;4395;48.554;8.820;2023-01-15T02:32:50;0.40;;;0.40;;
8716;SDS011;4395;48.554;8.820;2023-01-15T02:34:58;0.40;;;0.30;;
8716;SDS011;4395;48.554;8.820;2023-01-15T02:37:08;0.57;;;0.57;;
8716;SDS011;4395;48.554;8.820;2023-01-15T02:39:15;0.40;;;0.40;;
8716;SDS011;4395;48.554;8.820;2023-01-15T02:41:24;0.25;;;0.25;;
8716;SDS011;4395;48.554;8.820;2023-01-15T02:43:31;1.85;;;1.75;;
8716;SDS011;4395;48.554;8.820;2023-01-15T02:45:39;2.03;;;1.83;;
8716;SDS011;4395;48.554;8.820;2023-01-15T02:47:46;1.20;;;1.10;;
8716;SDS011;4395;48.554;8.820;2023-01-15T02:49:49;0.60;;;0.60;;
8716;SDS011;4395;48.554;8.820;2023-01-15T02:51:57;0.65;;;0.55;;
8716;SDS011;4395;48.554;8.820;2023-01-15T02:54:05;1.10;;;0.85;;
8716;SDS011;4395;48.554;8.820;2023-01-15T02:56:14;0.85;;;0.50;;
8716;SDS011;4395;48.554;8.820;2023-01-15T02:58:25;1.27;;;1.17;;
8716;SDS011;4395;48.554;8.820;2023-01-15T03:00:35;0.82;;;0.60;;
8716;SDS011;4395;48.554;8.820;2023-01-15T03:02:45;0.03;;;0.03;;
8716;SDS011;4395;48.554;8.820;2023-01-15T03:04:54;0.65;;;0.35;;
8716;SDS011;4395;48.554;8.820;2023-01-15T03:07:03;0.52;;;0.52;;
8716;SDS011;4395;48.554;8.820;2023-01-15T03:09:11;0.82;;;0.55;;
8716;SDS011;4395;48.554;8.820;2023-01-15T03:11:16;0.40;;;0.38;;
8716;SDS011;4395;48.554;8.820;2023-01-15T03:13:28;0.38;;;0.20;;
8716;SDS011;4395;48.554;8.820;2023-01-15T03:15:42;1.10;;;0.40;;
8716;SDS011;4395;48.554;8.820;2023-01-15T03:18:07;0.55;;;0.52;;
8716;SDS011;4395;48.554;8.820;2023-01-15T03:20:19;1.20;;;0.90;;
8716;SDS011;4395;48.554;8.820;2023-01-15T03:22:27;0.43;;;0.30;;
8716;SDS011;4395;48.554;8.820;2023-01-15T03:24:34;1.40;;;0.68;;
8716;SDS011;4395;48.554;8.820;2023-01-15T03:26:43;2.20;;;0.90;;
8716;SDS011;4395;48.554;8.820;2023-01-15T03:28:46;1.35;;;0.93;;
8716;SDS011;4395;48.554;8.820;2023-01-15T03:30:57;1.17;;;0.82;;
8716;SDS011;4395;48.554;8.820;2023-01-15T03:33:02;0.60;;;0.38;;
8716;SDS011;4395;48.554;8.820;2023-01-15T03:35:07;0.52;;;0.30;;
8716;SDS011;4395;48.554;8.820;2023-01-15T03:37:30;0.60;;;0.60;;
8716;SDS011;4395;48.554;8.820;2023-01-15T03:39:35;0.52;;;0.50;;
8716;SDS011;4395;48.554;8.820;2023-01-15T03:41:54;0.55;;;0.43;;
8716;SDS011;4395;48.554;8.820;2023-01-15T03:44:06;1.98;;;0.60;;
8716;SDS011;4395;48.554;8.820;2023-01-15T03:46:25;0.40;;;0.30;;
8716;SDS011;4395;48.554;8.820;2023-01-15T03:48:50;1.65;;;1.10;;
8716;SDS011;4395;48.554;8.820;2023-01-15T03:51:03;2.90;;;1.55;;
8716;SDS011;4395;48.554;8.820;2023-01-15T03:53:14;1.52;;;1.00;;
8716;SDS011;4395;48.554;8.820;2023-01-15T03:55:35;0.75;;;0.52;;
8716;SDS011;4395;48.554;8.820;2023-01-15T03:57:47;0.70;;;0.70;;
8716;SDS011;4395;48.554;8.820;2023-01-15T03:59:54;1.58;;;0.70;;
8716;SDS011;4395;48.554;8.820;2023-01-15T04:02:07;2.15;;;0.60;;
8716;SDS011;4395;48.554;8.820;2023-01-15T04:04:12;0.30;;;0.30;;
8716;SDS011;4395;48.554;8.820;2023-01-15T04:06:18;1.42;;;1.10;;
8716;SDS011;4395;48.554;8.820;2023-01-15T04:08:22;1.02;;;0.68;;
8716;SDS011;4395;48.554;8.820;2023-01-15T04:10:29;1.00;;;0.75;;
8716;SDS011;4395;48.554;8.820;2023-01-15T04:12:35;0.15;;;0.15;;
8716;SDS011;4395;48.554;8.820;2023-01-15T04:14:42;1.02;;;0.77;;
8716;SDS011;4395;48.554;8.820;2023-01-15T04:16:50;1.13;;;0.80;;
8716;SDS011;4395;48.554;8.820;2023-01-15T04:18:58;0.68;;;0.30;;
8716;SDS011;4395;48.554;8.820;2023-01-15T04:21:02;0.10;;;0.10;;
8716;SDS011;4395;48.554;8.820;2023-01-15T04:23:07;0.95;;;0.55;;
8716;SDS011;4395;48.554;8.820;2023-01-15T04:25:10;0.40;;;0.40;;
8716;SDS011;4395;48.554;8.820;2023-01-15T04:27:13;0.43;;;0.43;;
8716;SDS011;4395;48.554;8.820;2023-01-15T04:29:16;1.27;;;0.22;;
8716;SDS011;4395;48.554;8.820;2023-01-15T04:31:19;0.40;;;0.40;;
8716;SDS011;4395;48.554;8.820;2023-01-15T04:33:22;0.20;;;0.20;;
8716;SDS011;4395;48.554;8.820;2023-01-15T04:35:27;0.55;;;0.30;;
8716;SDS011;4395;48.554;8.820;2023-01-15T04:37:29;0.30;;;0.30;;
8716;SDS011;4395;48.554;8.820;2023-01-15T04:39:32;1.27;;;0.30;;
8716;SDS011;4395;48.554;8.820;2023-01-15T04:41:35;0.70;;;0.30;;
8716;SDS011;4395;48.554;8.820;2023-01-15T04:43:55;0.40;;;0.40;;
8716;SDS011;4395;48.554;8.820;2023-01-15T04:46:06;0.28;;;0.10;;
8716;SDS011;4395;48.554;8.820;2023-01-15T04:48:09;0.10;;;0.10;;
8716;SDS011;4395;48.554;8.820;2023-01-15T04:50:12;1.75;;;0.47;;
8716;SDS011;4395;48.554;8.820;2023-01-15T04:52:17;0.30;;;0.30;;
8716;SDS011;4395;48.554;8.820;2023-01-15T04:54:19;0.50;;;0.10;;
8716;SDS011;4395;48.554;8.820;2023-01-15T04:56:23;0.30;;;0.20;;
8716;SDS011;4395;48.554;8.820;2023-01-15T04:58:26;0.50;;;0.30;;
8716;SDS011;4395;48.554;8.820;2023-01-15T05:00:29;0.40;;;0.40;;
8716;SDS011;4395;48.554;8.820;2023-01-15T05:02:31;0.15;;;0.15;;
8716;SDS011;4395;48.554;8.820;2023-01-15T05:04:34;0.95;;;0.25;;
8716;SDS011;4395;48.554;8.820;2023-01-15T05:06:37;0.10;;;0.10;;
8716;SDS011;4395;48.554;8.820;2023-01-15T05:08:41;1.20;;;0.10;;
8716;SDS011;4395;48.554;8.820;2023-01-15T05:10:44;0.10;;;0.10;;
8716;SDS011;4395;48.554;8.820;2023-01-15T05:12:47;0.75;;;0.38;;
8716;SDS011;4395;48.554;8.820;2023-01-15T05:14:51;0.52;;;0.10;;
8716;SDS011;4395;48.554;8.820;2023-01-15T05:16:54;0.25;;;0.20;;
8716;SDS011;4395;48.554;8.820;2023-01-15T05:18:57;0.55;;;0.20;;
8716;SDS011;4395;48.554;8.820;2023-01-15T05:21:03;0.43;;;0.40;;
8716;SDS011;4395;48.554;8.820;2023-01-15T05:23:06;0.40;;;0.40;;
8716;SDS011;4395;48.554;8.820;2023-01-15T05:25:10;0.10;;;0.10;;
8716;SDS011;4395;48.554;8.820;2023-01-15T05:27:13;0.10;;;0.10;;
8716;SDS011;4395;48.554;8.820;2023-01-15T05:29:17;0.55;;;0.20;;
8716;SDS011;4395;48.554;8.820;2023-01-15T05:31:19;0.47;;;0.28;;
8716;SDS011;4395;48.554;8.820;2023-01-15T05:33:23;0.88;;;0.28;;
8716;SDS011;4395;48.554;8.820;2023-01-15T05:35:26;0.35;;;0.35;;
8716;SDS011;4395;48.554;8.820;2023-01-15T05:37:29;0.28;;;0.28;;
8716;SDS011;4395;48.554;8.820;2023-01-15T05:39:31;0.40;;;0.30;;
8716;SDS011;4395;48.554;8.820;2023-01-15T05:41:36;0.68;;;0.50;;
8716;SDS011;4395;48.554;8.820;2023-01-15T05:43:51;1.85;;;0.20;;
8716;SDS011;4395;48.554;8.820;2023-01-15T05:45:54;1.17;;;0.20;;
8716;SDS011;4395;48.554;8.820;2023-01-15T05:47:57;0.10;;;0.10;;
8716;SDS011;4395;48.554;8.820;2023-01-15T05:49:59;0.60;;;0.10;;
8716;SDS011;4395;48.554;8.820;2023-01-15T05:52:02;0.10;;;0.10;;
8716;SDS011;4395;48.554;8.820;2023-01-15T05:54:06;0.10;;;0.10;;
8716;SDS011;4395;48.554;8.820;2023-01-15T05:56:10;0.00;;;0.00;;
8716;SDS011;4395;48.554;8.820;2023-01-15T05:58:14;0.00;;;0.00;;
8716;SDS011;4395;48.554;8.820;2023-01-15T06:00:17;0.10;;;0.00;;
8716;SDS011;4395;48.554;8.820;2023-01-15T06:02:20;0.70;;;0.20;;
8716;SDS011;4395;48.554;8.820;2023-01-15T06:04:23;0.05;;;0.03;;
8716;SDS011;4395;48.554;8.820;2023-01-15T06:06:27;0.30;;;0.00;;
8716;SDS011;4395;48.554;8.820;2023-01-15T06:08:30;0.00;;;0.00;;
8716;SDS011;4395;48.554;8.820;2023-01-15T06:10:33;0.00;;;0.00;;
8716;SDS011;4395;48.554;8.820;2023-01-15T06:12:35;0.10;;;0.10;;
8716;SDS011;4395;48.554;8.820;2023-01-15T06:14:39;0.00;;;0.00;;
8716;SDS011;4395;48.554;8.820;2023-01-15T06:16:42;0.03;;;0.00;;
8716;SDS011;4395;48.554;8.820;2023-01-15T06:18:45;0.00;;;0.00;;
8716;SDS011;4395;48.554;8.820;2023-01-15T06:20:48;0.10;;;0.10;;
8716;SDS011;4395;48.554;8.820;2023-01-15T06:22:51;0.00;;;0.00;;
8716;SDS011;4395;48.554;8.820;2023-01-15T06:24:54;0.00;;;0.00;;
8716;SDS011;4395;48.554;8.820;2023-01-15T06:26:57;0.10;;;0.10;;
8716;SDS011;4395;48.554;8.820;2023-01-15T06:29:01;0.00;;;0.00;;
8716;SDS011;4395;48.554;8.820;2023-01-15T06:31:05;0.00;;;0.00;;
8716;SDS011;4395;48.554;8.820;2023-01-15T06:33:09;0.00;;;0.00;;
8716;SDS011;4395;48.554;8.820;2023-01-15T06:35:12;0.20;;;0.20;;
8716;SDS011;4395;48.554;8.820;2023-01-15T06:37:14;0.03;;;0.03;;
8716;SDS011;4395;48.554;8.820;2023-01-15T06:39:17;0.03;;;0.03;;
8716;SDS011;4395;48.554;8.820;2023-01-15T06:41:21;0.10;;;0.10;;
8716;SDS011;4395;48.554;8.820;2023-01-15T06:43:42;0.10;;;0.10;;
8716;SDS011;4395;48.554;8.820;2023-01-15T06:46:06;0.10;;;0.10;;
8716;SDS011;4395;48.554;8.820;2023-01-15T06:48:28;0.10;;;0.10;;
8716;SDS011;4395;48.554;8.820;2023-01-15T06:50:31;0.00;;;0.00;;
8716;SDS011;4395;48.554;8.820;2023-01-15T06:52:33;0.08;;;0.08;;
8716;SDS011;4395;48.554;8.820;2023-01-15T06:54:36;0.60;;;0.20;;
8716;SDS011;4395;48.554;8.820;2023-01-15T06:56:39;0.38;;;0.20;;
8716;SDS011;4395;48.554;8.820;2023-01-15T06:58:42;0.10;;;0.10;;
8716;SDS011;4395;48.554;8.820;2023-01-15T07:00:45;0.00;;;0.00;;
8716;SDS011;4395;48.554;8.820;2023-01-15T07:02:58;0.20;;;0.20;;
8716;SDS011;4395;48.554;8.820;2023-01-15T07:05:01;0.10;;;0.10;;
8716;SDS011;4395;48.554;8.820;2023-01-15T07:07:04;0.10;;;0.10;;
8716;SDS011;4395;48.554;8.820;2023-01-15T07:09:06;0.50;;;0.50;;
8716;SDS011;4395;48.554;8.820;2023-01-15T07:11:09;0.70;;;0.65;;
8716;SDS011;4395;48.554;8.820;2023-01-15T07:13:12;1.50;;;0.73;;
8716;SDS011;4395;48.554;8.820;2023-01-15T07:15:15;1.40;;;0.47;;
8716;SDS011;4395;48.554;8.820;2023-01-15T07:17:18;0.30;;;0.30;;
8716;SDS011;4395;48.554;8.820;2023-01-15T07:19:22;1.23;;;0.90;;
8716;SDS011;4395;48.554;8.820;2023-01-15T07:21:25;1.75;;;1.42;;
8716;SDS011;4395;48.554;8.820;2023-01-15T07:23:28;0.45;;;0.40;;
8716;SDS011;4395;48.554;8.820;2023-01-15T07:25:30;0.50;;;0.50;;
8716;SDS011;4395;48.554;8.820;2023-01-15T07:27:33;0.10;;;0.10;;
8716;SDS011;4395;48.554;8.820;2023-01-15T07:29:36;0.10;;;0.10;;
8716;SDS011;4395;48.554;8.820;2023-01-15T07:31:39;0.08;;;0.08;;
8716;SDS011;4395;48.554;8.820;2023-01-15T07:33:42;1.00;;;0.10;;
8716;SDS011;4395;48.554;8.820;2023-01-15T07:35:46;0.10;;;0.10;;
8716;SDS011;4395;48.554;8.820;2023-01-15T07:37:49;0.10;;;0.10;;
8716;SDS011;4395;48.554;8.820;2023-01-15T07:39:53;0.13;;;0.13;;
8716;SDS011;4395;48.554;8.820;2023-01-15T07:41:55;0.20;;;0.20;;
8716;SDS011;4395;48.554;8.820;2023-01-15T07:44:18;0.25;;;0.13;;
8716;SDS011;4395;48.554;8.820;2023-01-15T07:46:38;0.10;;;0.10;;
8716;SDS011;4395;48.554;8.820;2023-01-15T07:49:01;0.30;;;0.10;;
8716;SDS011;4395;48.554;8.820;2023-01-15T07:51:22;0.80;;;0.50;;
8716;SDS011;4395;48.554;8.820;2023-01-15T07:53:25;0.10;;;0.10;;
8716;SDS011;4395;48.554;8.820;2023-01-15T07:55:29;0.30;;;0.30;;
8716;SDS011;4395;48.554;8.820;2023-01-15T07:57:32;0.45;;;0.43;;
8716;SDS011;4395;48.554;8.820;2023-01-15T07:59:35;0.60;;;0.60;;
8716;SDS011;4395;48.554;8.820;2023-01-15T08:01:38;0.22;;;0.22;;
8716;SDS011;4395;48.554;8.820;2023-01-15T08:03:41;1.10;;;0.68;;
8716;SDS011;4395;48.554;8.820;2023-01-15T08:05:43;0.55;;;0.55;;
8716;SDS011;4395;48.554;8.820;2023-01-15T08:07:47;0.52;;;0.52;;
8716;SDS011;4395;48.554;8.820;2023-01-15T08:09:50;0.70;;;0.70;;
8716;SDS011;4395;48.554;8.820;2023-01-15T08:11:53;0.38;;;0.38;;
8716;SDS011;4395;48.554;8.820;2023-01-15T08:14:14;0.70;;;0.68;;
8716;SDS011;4395;48.554;8.820;2023-01-15T08:16:34;0.50;;;0.50;;
8716;SDS011;4395;48.554;8.820;2023-01-15T08:18:38;0.30;;;0.30;;
8716;SDS011;4395;48.554;8.820;2023-01-15T08:20:40;0.30;;;0.20;;
8716;SDS011;4395;48.554;8.820;2023-01-15T08:22:47;1.33;;;0.68;;
8716;SDS011;4395;48.554;8.820;2023-01-15T08:24:50;0.10;;;0.10;;
8716;SDS011;4395;48.554;8.820;2023-01-15T08:26:53;0.68;;;0.68;;
8716;SDS011;4395;48.554;8.820;2023-01-15T08:28:56;0.30;;;0.30;;
8716;SDS011;4395;48.554;8.820;2023-01-15T08:31:00;0.40;;;0.10;;
8716;SDS011;4395;48.554;8.820;2023-01-15T08:33:03;0.82;;;0.80;;
8716;SDS011;4395;48.554;8.820;2023-01-15T08:35:06;0.90;;;0.90;;
8716;SDS011;4395;48.554;8.820;2023-01-15T08:37:10;0.50;;;0.47;;
8716;SDS011;4395;48.554;8.820;2023-01-15T08:39:14;0.77;;;0.77;;
8716;SDS011;4395;48.554;8.820;2023-01-15T08:41:17;0.17;;;0.17;;
8716;SDS011;4395;48.554;8.820;2023-01-15T08:43:19;0.13;;;0.10;;
8716;SDS011;4395;48.554;8.820;2023-01-15T08:45:23;1.00;;;1.00;;
8716;SDS011;4395;48.554;8.820;2023-01-15T08:47:25;0.10;;;0.10;;
8716;SDS011;4395;48.554;8.820;2023-01-15T08:49:28;0.10;;;0.10;;
8716;SDS011;4395;48.554;8.820;2023-01-15T08:51:31;0.30;;;0.30;;
8716;SDS011;4395;48.554;8.820;2023-01-15T08:53:34;0.82;;;0.40;;
8716;SDS011;4395;48.554;8.820;2023-01-15T08:55:38;0.32;;;0.28;;
8716;SDS011;4395;48.554;8.820;2023-01-15T08:57:41;0.40;;;0.40;;
8716;SDS011;4395;48.554;8.820;2023-01-15T08:59:45;0.40;;;0.40;;
8716;SDS011;4395;48.554;8.820;2023-01-15T09:01:48;0.43;;;0.43;;
8716;SDS011;4395;48.554;8.820;2023-01-15T09:03:51;0.30;;;0.20;;
8716;SDS011;4395;48.554;8.820;2023-01-15T09:05:56;0.25;;;0.25;;
8716;SDS011;4395;48.554;8.820;2023-01-15T09:08:00;0.70;;;0.50;;
8716;SDS011;4395;48.554;8.820;2023-01-15T09:10:03;1.75;;;1.33;;
8716;SDS011;4395;48.554;8.820;2023-01-15T09:12:08;2.80;;;1.77;;
8716;SDS011;4395;48.554;8.820;2023-01-15T09:14:11;1.45;;;1.25;;
8716;SDS011;4395;48.554;8.820;2023-01-15T09:16:36;1.20;;;1.10;;
8716;SDS011;4395;48.554;8.820;2023-01-15T09:18:39;0.60;;;0.60;;
8716;SDS011;4395;48.554;8.820;2023-01-15T09:20:43;1.40;;;1.13;;
8716;SDS011;4395;48.554;8.820;2023-01-15T09:22:46;0.50;;;0.38;;
8716;SDS011;4395;48.554;8.820;2023-01-15T09:24:49;1.85;;;1.15;;
8716;SDS011;4395;48.554;8.820;2023-01-15T09:26:52;0.88;;;0.88;;
8716;SDS011;4395;48.554;8.820;2023-01-15T09:28:56;0.40;;;0.40;;
8716;SDS011;4395;48.554;8.820;2023-01-15T09:30:59;0.90;;;0.70;;
8716;SDS011;4395;48.554;8.820;2023-01-15T09:33:03;0.50;;;0.30;;
8716;SDS011;4395;48.554;8.820;2023-01-15T09:35:06;0.52;;;0.52;;
8716;SDS011;4395;48.554;8.820;2023-01-15T09:37:09;0.30;;;0.30;;
8716;SDS011;4395;48.554;8.820;2023-01-15T09:39:12;0.30;;;0.30;;
8716;SDS011;4395;48.554;8.820;2023-01-15T09:41:15;0.30;;;0.30;;
8716;SDS011;4395;48.554;8.820;2023-01-15T09:43:38;0.10;;;0.00;;
8716;SDS011;4395;48.554;8.820;2023-01-15T09:45:54;0.73;;;0.73;;
8716;SDS011;4395;48.554;8.820;2023-01-15T09:48:14;0.38;;;0.38;;
8716;SDS011;4395;48.554;8.820;2023-01-15T09:50:27;1.00;;;0.90;;
8716;SDS011;4395;48.554;8.820;2023-01-15T09:52:41;0.52;;;0.52;;
8716;SDS011;4395;48.554;8.820;2023-01-15T09:55:02;0.55;;;0.55;;
8716;SDS011;4395;48.554;8.820;2023-01-15T09:57:10;0.82;;;0.77;;
8716;SDS011;4395;48.554;8.820;2023-01-15T09:59:17;1.55;;;1.45;;
8716;SDS011;4395;48.554;8.820;2023-01-15T10:01:26;0.93;;;0.90;;
8716;SDS011;4395;48.554;8.820;2023-01-15T10:03:32;0.38;;;0.38;;
8716;SDS011;4395;48.554;8.820;2023-01-15T10:05:41;0.35;;;0.25;;
8716;SDS011;4395;48.554;8.820;2023-01-15T10:07:52;0.38;;;0.38;;
8716;SDS011;4395;48.554;8.820;2023-01-15T10:10:00;0.52;;;0.52;;
8716;SDS011;4395;48.554;8.820;2023-01-15T10:12:07;0.68;;;0.60;;
8716;SDS011;4395;48.554;8.820;2023-01-15T10:14:35;0.70;;;0.70;;
8716;SDS011;4395;48.554;8.820;2023-01-15T10:16:43;1.13;;;1.02;;
8716;SDS011;4395;48.554;8.820;2023-01-15T10:18:46;0.55;;;0.55;;
8716;SDS011;4395;48.554;8.820;2023-01-15T10:20:51;0.52;;;0.40;;
8716;SDS011;4395;48.554;8.820;2023-01-15T10:23:15;0.57;;;0.57;;
8716;SDS011;4395;48.554;8.820;2023-01-15T10:25:32;2.83;;;1.83;;
8716;SDS011;4395;48.554;8.820;2023-01-15T10:27:39;1.40;;;1.20;;
8716;SDS011;4395;48.554;8.820;2023-01-15T10:29:48;3.13;;;1.13;;
8716;SDS011;4395;48.554;8.820;2023-01-15T10:31:57;1.30;;;1.20;;
8716;SDS011;4395;48.554;8.820;2023-01-15T10:34:13;0.85;;;0.80;;
8716;SDS011;4395;48.554;8.820;2023-01-15T10:36:31;3.58;;;2.25;;
8716;SDS011;4395;48.554;8.820;2023-01-15T10:38:39;2.03;;;1.83;;
8716;SDS011;4395;48.554;8.820;2023-01-15T10:40:55;1.35;;;0.98;;
8716;SDS011;4395;48.554;8.820;2023-01-15T10:43:09;0.60;;;0.60;;
8716;SDS011;4395;48.554;8.820;2023-01-15T10:45:19;0.80;;;0.80;;
8716;SDS011;4395;48.554;8.820;2023-01-15T10:47:28;0.73;;;0.73;;
8716;SDS011;4395;48.554;8.820;2023-01-15T10:49:34;0.80;;;0.73;;
8716;SDS011;4395;48.554;8.820;2023-01-15T10:51:41;4.05;;;2.45;;
8716;SDS011;4395;48.554;8.820;2023-01-15T10:53:46;1.15;;;1.10;;
8716;SDS011;4395;48.554;8.820;2023-01-15T10:55:53;3.80;;;2.95;;
8716;SDS011;4395;48.554;8.820;2023-01-15T10:58:03;2.50;;;2.08;;
8716;SDS011;4395;48.554;8.820;2023-01-15T11:00:13;1.45;;;1.35;;
8716;SDS011;4395;48.554;8.820;2023-01-15T11:02:21;0.82;;;0.80;;
8716;SDS011;4395;48.554;8.820;2023-01-15T11:04:30;1.40;;;1.30;;
8716;SDS011;4395;48.554;8.820;2023-01-15T11:06:33;1.10;;;1.10;;
8716;SDS011;4395;48.554;8.820;2023-01-15T11:08:36;1.13;;;1.08;;
8716;SDS011;4395;48.554;8.820;2023-01-15T11:11:08;1.75;;;0.95;;
8716;SDS011;4395;48.554;8.820;2023-01-15T11:13:20;1.17;;;1.02;;
8716;SDS011;4395;48.554;8.820;2023-01-15T11:15:43;0.25;;;0.22;;
8716;SDS011;4395;48.554;8.820;2023-01-15T11:18:07;0.60;;;0.60;;
8716;SDS011;4395;48.554;8.820;2023-01-15T11:20:35;0.40;;;0.35;;
8716;SDS011;4395;48.554;8.820;2023-01-15T11:22:45;0.55;;;0.55;;
8716;SDS011;4395;48.554;8.820;2023-01-15T11:24:49;1.08;;;0.80;;
8716;SDS011;4395;48.554;8.820;2023-01-15T11:26:53;0.93;;;0.93;;
8716;SDS011;4395;48.554;8.820;2023-01-15T11:28:56;0.30;;;0.30;;
8716;SDS011;4395;48.554;8.820;2023-01-15T11:31:01;0.30;;;0.30;;
8716;SDS011;4395;48.554;8.820;2023-01-15T11:33:05;0.30;;;0.30;;
8716;SDS011;4395;48.554;8.820;2023-01-15T11:35:23;2.83;;;1.90;;
8716;SDS011;4395;48.554;8.820;2023-01-15T11:37:29;1.33;;;0.82;;
8716;SDS011;4395;48.554;8.820;2023-01-15T11:39:32;1.42;;;0.70;;
8716;SDS011;4395;48.554;8.820;2023-01-15T11:41:35;1.05;;;0.80;;
8716;SDS011;4395;48.554;8.820;2023-01-15T11:43:55;1.20;;;0.40;;
8716;SDS011;4395;48.554;8.820;2023-01-15T11:46:23;0.30;;;0.30;;
8716;SDS011;4395;48.554;8.820;2023-01-15T11:48:42;0.20;;;0.10;;
8716;SDS011;4395;48.554;8.820;2023-01-15T11:51:05;0.35;;;0.35;;
8716;SDS011;4395;48.554;8.820;2023-01-15T11:53:13;1.20;;;0.32;;
8716;SDS011;4395;48.554;8.820;2023-01-15T11:55:20;1.25;;;0.50;;
8716;SDS011;4395;48.554;8.820;2023-01-15T11:57:25;0.73;;;0.30;;
8716;SDS011;4395;48.554;8.820;2023-01-15T11:59:30;1.10;;;0.73;;
8716;SDS011;4395;48.554;8.820;2023-01-15T12:01:34;1.55;;;0.68;;
8716;SDS011;4395;48.554;8.820;2023-01-15T12:03:38;1.00;;;0.90;;
8716;SDS011;4395;48.554;8.820;2023-01-15T12:05:44;0.20;;;0.20;;
8716;SDS011;4395;48.554;8.820;2023-01-15T12:07:49;1.73;;;1.00;;
8716;SDS011;4395;48.554;8.820;2023-01-15T12:10:01;0.40;;;0.30;;
8716;SDS011;4395;48.554;8.820;2023-01-15T12:12:17;1.50;;;1.40;;
8716;SDS011;4395;48.554;8.820;2023-01-15T12:14:34;1.20;;;0.70;;
8716;SDS011;4395;48.554;8.820;2023-01-15T12:16:46;0.50;;;0.50;;
8716;SDS011;4395;48.554;8.820;2023-01-15T12:18:56;1.70;;;1.10;;
8716;SDS011;4395;48.554;8.820;2023-01-15T12:21:03;2.13;;;1.92;;
8716;SDS011;4395;48.554;8.820;2023-01-15T12:23:21;2.08;;;1.77;;
8716;SDS011;4395;48.554;8.820;2023-01-15T12:25:41;2.00;;;1.35;;
8716;SDS011;4395;48.554;8.820;2023-01-15T12:27:54;1.60;;;1.40;;
8716;SDS011;4395;48.554;8.820;2023-01-15T12:30:02;1.13;;;0.90;;
8716;SDS011;4395;48.554;8.820;2023-01-15T12:32:16;1.20;;;1.00;;
8716;SDS011;4395;48.554;8.820;2023-01-15T12:34:21;1.45;;;1.08;;
8716;SDS011;4395;48.554;8.820;2023-01-15T12:36:28;1.27;;;1.17;;
8716;SDS011;4395;48.554;8.820;2023-01-15T12:38:44;1.35;;;1.23;;
8716;SDS011;4395;48.554;8.820;2023-01-15T12:40:53;0.95;;;0.80;;
8716;SDS011;4395;48.554;8.820;2023-01-15T12:43:01;1.00;;;0.90;;
8716;SDS011;4395;48.554;8.820;2023-01-15T12:45:22;1.40;;;1.17;;
8716;SDS011;4395;48.554;8.820;2023-01-15T12:47:30;0.77;;;0.75;;
8716;SDS011;4395;48.554;8.820;2023-01-15T12:49:39;1.10;;;0.77;;
8716;SDS011;4395;48.554;8.820;2023-01-15T12:51:49;1.13;;;1.00;;
8716;SDS011;4395;48.554;8.820;2023-01-15T12:53:56;1.00;;;1.00;;
8716;SDS011;4395;48.554;8.820;2023-01-15T12:56:06;1.25;;;0.85;;
8716;SDS011;4395;48.554;8.820;2023-01-15T12:58:22;1.13;;;1.10;;
8716;SDS011;4395;48.554;8.820;2023-01-15T13:00:36;1.27;;;1.17;;
8716;SDS011;4395;48.554;8.820;2023-01-15T13:02:48;1.73;;;1.63;;
8716;SDS011;4395;48.554;8.820;2023-01-15T13:05:02;1.05;;;0.88;;
8716;SDS011;4395;48.554;8.820;2023-01-15T13:07:19;2.90;;;1.58;;
8716;SDS011;4395;48.554;8.820;2023-01-15T13:09:31;3.67;;;2.78;;
8716;SDS011;4395;48.554;8.820;2023-01-15T13:11:41;2.90;;;2.67;;